Terminal Aerodrome Forecast
Issued by NWS Buffalo, NY

Home | Current Version | Previous Version | Text Only | Print | Product List | Glossary On
Versions: 1 2 3 4 5 6 7 8 9 10 11 12 13 14 15 16 17 18 19 20 21 22 23 24 25 26 27 28 29 30
000
FTUS41 KBUF 031600 AAB
TAFBUF
TAF AMD
KBUF 031632Z 0317/0412 16006KT 3/4SM -SN OVC015
     FM032100 16010G23KT 2SM -SNPL OVC045
     FM040000 18015G24KT 6SM -RA OVC020
     FM040800 25020G26KT P6SM VCSH OVC015=

USA.gov is the U.S. government's official web portal to all federal, state and local government web resources and services.